createdAt,value
2019-04-27T00:00:20.244Z,91.96
2019-04-27T00:01:20.262Z,91.96
2019-04-27T00:02:24.848Z,92.37
2019-04-27T00:03:23.332Z,92.27
2019-04-27T00:04:20.203Z,92.27
2019-04-27T00:05:20.198Z,91.76
2019-04-27T00:06:20.206Z,92.58
2019-04-27T00:07:21.200Z,92.62
2019-04-27T00:08:20.167Z,92.47
2019-04-27T00:09:20.153Z,92.47
2019-04-27T00:10:20.446Z,92.68
2019-04-27T00:11:20.152Z,92.72
2019-04-27T00:12:22.432Z,92.52
2019-04-27T00:13:22.888Z,92.47
2019-04-27T00:14:20.092Z,92.72
2019-04-27T00:15:20.085Z,91.76
2019-04-27T00:16:20.094Z,92.01
2019-04-27T00:17:40.407Z,92.27
2019-04-27T00:18:21.057Z,92.27
2019-04-27T00:19:20.044Z,92.27
2019-04-27T00:20:21.733Z,92.72
2019-04-27T00:21:20.017Z,92.52
2019-04-27T00:22:20.021Z,92.42
2019-04-27T00:23:20.002Z,92.93
2019-04-27T00:24:19.984Z,92.52
2019-04-27T00:25:19.981Z,93.85
2019-04-27T00:26:19.977Z,93.54
2019-04-27T00:27:19.979Z,93.85
2019-04-27T00:28:19.956Z,93.33
2019-04-27T00:29:19.940Z,93.65
2019-04-27T00:30:19.920Z,93.74
2019-04-27T00:31:19.919Z,93.85
2019-04-27T00:32:19.939Z,93.95
2019-04-27T00:33:19.897Z,92.72
2019-04-27T00:34:19.879Z,92.62
2019-04-27T00:35:19.916Z,92.52
2019-04-27T00:36:19.859Z,93.89
2019-04-27T00:37:19.870Z,92.36
2019-04-27T00:38:19.862Z,92.56
2019-04-27T00:39:19.834Z,92.56
2019-04-27T00:40:19.816Z,92.62
2019-04-27T00:41:19.805Z,92.42
2019-04-27T00:42:19.801Z,92.56
2019-04-27T00:43:19.815Z,92.25
2019-04-27T00:44:19.773Z,91.80
2019-04-27T00:45:19.762Z,92.36
2019-04-27T00:46:19.749Z,92.25
2019-04-27T00:47:19.740Z,92.05
2019-04-27T00:48:19.749Z,92.25
2019-04-27T00:49:20.315Z,91.85
2019-04-27T00:50:19.712Z,92.15
2019-04-27T00:51:19.700Z,92.25
2019-04-27T00:52:19.692Z,92.25
2019-04-27T00:53:19.691Z,92.25
2019-04-27T00:54:19.664Z,92.46
2019-04-27T00:55:19.666Z,91.89
2019-04-27T00:56:19.658Z,92.05
2019-04-27T00:57:19.639Z,92.50
2019-04-27T00:58:19.648Z,91.95
2019-04-27T00:59:19.619Z,92.19
2019-04-27T01:00:19.602Z,92.15
2019-04-27T01:01:19.600Z,92.19
2019-04-27T01:02:19.581Z,92.30
2019-04-27T01:03:19.585Z,92.40
2019-04-27T01:04:19.565Z,92.19
2019-04-27T01:05:19.545Z,91.89
2019-04-27T01:06:19.545Z,92.30
2019-04-27T01:07:19.529Z,91.99
2019-04-27T01:08:19.531Z,91.78
2019-04-27T01:09:19.514Z,92.24
2019-04-27T01:10:19.495Z,92.10
2019-04-27T01:11:19.481Z,92.30
2019-04-27T01:12:19.472Z,92.44
2019-04-27T01:13:19.475Z,92.50
2019-04-27T01:14:19.450Z,92.55
2019-04-27T01:15:19.439Z,92.85
2019-04-27T01:16:22.026Z,92.65
2019-04-27T01:17:19.421Z,92.44
2019-04-27T01:18:19.552Z,92.55
2019-04-27T01:19:19.404Z,92.34
2019-04-27T01:20:19.404Z,92.44
2019-04-27T01:21:19.508Z,92.34
2019-04-27T01:22:19.394Z,92.34
2019-04-27T01:23:19.406Z,91.93
2019-04-27T01:24:19.342Z,92.24
2019-04-27T01:25:19.332Z,91.93
2019-04-27T01:26:19.320Z,91.97
2019-04-27T01:27:19.314Z,92.24
2019-04-27T01:28:20.675Z,92.34
2019-04-27T01:29:19.402Z,92.44
2019-04-27T01:30:19.287Z,92.38
2019-04-27T01:31:19.447Z,91.93
2019-04-27T01:32:20.762Z,92.44
2019-04-27T01:33:19.779Z,92.03
2019-04-27T01:34:19.384Z,92.24
2019-04-27T01:35:19.235Z,92.14
2019-04-27T01:36:19.209Z,92.08
2019-04-27T01:37:21.031Z,92.28
2019-04-27T01:38:19.280Z,92.38
2019-04-27T01:39:19.204Z,92.59
2019-04-27T01:40:19.385Z,92.24
2019-04-27T01:41:19.375Z,92.28
2019-04-27T01:42:19.365Z,92.38
2019-04-27T01:43:19.130Z,92.38
2019-04-27T01:44:19.495Z,91.97
2019-04-27T01:45:19.114Z,92.38
2019-04-27T01:46:19.636Z,92.49
2019-04-27T01:47:19.090Z,91.97
2019-04-27T01:48:25.072Z,92.28
2019-04-27T01:49:20.083Z,92.28
2019-04-27T01:50:19.062Z,91.87
2019-04-27T01:51:20.941Z,92.38
2019-04-27T01:52:19.488Z,92.18
2019-04-27T01:53:19.145Z,91.67
2019-04-27T01:54:19.424Z,91.97
2019-04-27T01:55:19.002Z,92.08
2019-04-27T01:56:19.567Z,92.38
2019-04-27T01:57:19.495Z,91.97
2019-04-27T01:58:20.233Z,92.59
2019-04-27T01:59:19.915Z,91.87
2019-04-27T02:00:19.396Z,92.49
2019-04-27T02:01:18.957Z,92.08
2019-04-27T02:02:19.127Z,92.08
2019-04-27T02:03:19.793Z,92.63
2019-04-27T02:04:19.331Z,92.28
2019-04-27T02:05:19.152Z,92.49
2019-04-27T02:06:19.087Z,92.22
2019-04-27T02:07:19.246Z,92.53
2019-04-27T02:08:19.613Z,91.91
2019-04-27T02:09:18.900Z,91.91
2019-04-27T02:10:19.285Z,91.61
2019-04-27T02:11:18.829Z,91.71
2019-04-27T02:12:19.294Z,91.09
2019-04-27T02:13:18.963Z,91.09
2019-04-27T02:14:19.619Z,91.30
2019-04-27T02:15:19.232Z,91.09
2019-04-27T02:16:18.859Z,91.09
2019-04-27T02:17:18.882Z,91.09
2019-04-27T02:18:19.452Z,91.71
2019-04-27T02:19:19.352Z,91.55
2019-04-27T02:20:19.753Z,91.91
2019-04-27T02:21:19.267Z,91.30
2019-04-27T02:22:18.856Z,91.24
2019-04-27T02:23:19.225Z,91.24
2019-04-27T02:24:18.773Z,91.35
2019-04-27T02:25:18.920Z,91.14
2019-04-27T02:26:19.175Z,91.14
2019-04-27T02:27:18.759Z,91.35
2019-04-27T02:28:19.499Z,91.35
2019-04-27T02:29:18.921Z,91.14
2019-04-27T02:30:20.638Z,91.03
2019-04-27T02:31:19.343Z,91.65
2019-04-27T02:32:20.310Z,92.06
2019-04-27T02:33:20.314Z,92.06
2019-04-27T02:34:19.862Z,91.75
2019-04-27T02:35:19.320Z,91.65
2019-04-27T02:36:20.247Z,91.59
2019-04-27T02:37:20.021Z,91.38
2019-04-27T02:38:20.138Z,91.49
2019-04-27T02:39:19.745Z,92.10
2019-04-27T02:40:20.481Z,91.90
2019-04-27T02:41:19.868Z,92.00
2019-04-27T02:42:20.075Z,92.10
2019-04-27T02:43:19.428Z,92.00
2019-04-27T02:44:19.935Z,91.90
2019-04-27T02:45:19.590Z,91.90
2019-04-27T02:46:20.077Z,92.10
2019-04-27T02:47:20.880Z,91.90
2019-04-27T02:48:19.892Z,91.80
2019-04-27T02:49:20.133Z,91.80
2019-04-27T02:50:19.327Z,92.10
2019-04-27T02:51:20.328Z,91.90
2019-04-27T02:52:19.863Z,91.49
2019-04-27T02:53:19.704Z,91.49
2019-04-27T02:54:20.441Z,91.59
2019-04-27T02:55:19.749Z,91.38
2019-04-27T02:56:20.230Z,91.80
2019-04-27T02:57:19.831Z,91.28
2019-04-27T02:58:21.478Z,91.69
2019-04-27T02:59:19.866Z,91.49
2019-04-27T03:00:20.377Z,91.53
2019-04-27T03:01:20.106Z,91.22
2019-04-27T03:02:19.618Z,91.28
2019-04-27T03:03:20.383Z,91.74
2019-04-27T03:04:20.407Z,91.74
2019-04-27T03:05:19.655Z,92.14
2019-04-27T03:06:19.845Z,91.63
2019-04-27T03:07:20.099Z,91.12
2019-04-27T03:08:20.030Z,91.22
2019-04-27T03:09:20.463Z,91.74
2019-04-27T03:10:19.853Z,92.14
2019-04-27T03:11:20.487Z,92.08
2019-04-27T03:12:19.327Z,92.04
2019-04-27T03:13:20.034Z,92.14
2019-04-27T03:14:29.689Z,92.19
2019-04-27T03:15:22.831Z,92.04
2019-04-27T03:16:20.327Z,92.04
2019-04-27T03:17:19.907Z,91.74
2019-04-27T03:18:19.497Z,91.57
2019-04-27T03:19:21.676Z,91.22
2019-04-27T03:20:20.133Z,91.16
2019-04-27T03:21:20.130Z,91.47
2019-04-27T03:22:19.428Z,91.42
2019-04-27T03:23:19.951Z,91.57
2019-04-27T03:24:19.927Z,92.08
2019-04-27T03:25:20.228Z,92.19
2019-04-27T03:26:19.618Z,92.40
2019-04-27T03:27:20.082Z,92.19
2019-04-27T03:28:20.069Z,91.88
2019-04-27T03:29:20.224Z,92.08
2019-04-27T03:30:22.536Z,92.03
2019-04-27T03:31:21.583Z,91.88
2019-04-27T03:32:22.008Z,91.99
2019-04-27T03:33:22.301Z,92.08
2019-04-27T03:34:22.406Z,91.57
2019-04-27T03:35:22.194Z,91.88
2019-04-27T03:36:21.424Z,91.72
2019-04-27T03:37:20.118Z,91.37
2019-04-27T03:38:19.753Z,91.31
2019-04-27T03:39:19.932Z,92.03
2019-04-27T03:40:20.416Z,92.23
2019-04-27T03:41:19.262Z,92.54
2019-04-27T03:42:20.495Z,92.54
2019-04-27T03:43:19.978Z,92.44
2019-04-27T03:44:19.224Z,92.44
2019-04-27T03:45:20.022Z,91.93
2019-04-27T03:46:20.237Z,92.13
2019-04-27T03:47:19.777Z,92.33
2019-04-27T03:48:20.190Z,92.85
2019-04-27T03:49:31.928Z,91.93
2019-04-27T03:50:20.353Z,92.54
2019-04-27T03:51:19.633Z,92.03
2019-04-27T03:52:19.734Z,92.95
2019-04-27T03:53:22.677Z,92.03
2019-04-27T03:54:19.430Z,92.74
2019-04-27T03:55:19.733Z,92.33
2019-04-27T03:56:19.883Z,92.44
2019-04-27T03:57:19.936Z,92.74
2019-04-27T03:58:21.404Z,92.44
2019-04-27T03:59:19.564Z,92.44
2019-04-27T04:00:20.013Z,92.33
2019-04-27T04:01:20.123Z,92.54
2019-04-27T04:02:19.762Z,92.54
2019-04-27T04:03:17.600Z,92.54
2019-04-27T04:04:19.541Z,92.85
2019-04-27T04:05:19.648Z,93.05
2019-04-27T04:06:19.286Z,93.16
2019-04-27T04:07:19.484Z,93.26
2019-04-27T04:08:19.278Z,92.79
2019-04-27T04:09:19.154Z,92.85
2019-04-27T04:10:19.787Z,93.05
2019-04-27T04:11:19.691Z,93.57
2019-04-27T04:12:19.745Z,93.36
2019-04-27T04:13:17.468Z,93.05
2019-04-27T04:14:17.481Z,93.30
2019-04-27T04:15:19.863Z,94.02
2019-04-27T04:16:17.451Z,93.98
2019-04-27T04:17:20.188Z,93.98
2019-04-27T04:18:19.641Z,93.67
2019-04-27T04:19:19.689Z,93.77
2019-04-27T04:20:20.013Z,93.57
2019-04-27T04:21:19.452Z,94.08
2019-04-27T04:22:19.830Z,93.87
2019-04-27T04:23:19.860Z,93.98
2019-04-27T04:24:19.724Z,94.18
2019-04-27T04:25:19.873Z,93.46
2019-04-27T04:26:19.223Z,93.67
2019-04-27T04:27:17.325Z,94.39
2019-04-27T04:28:19.663Z,93.98
2019-04-27T04:29:17.309Z,94.08
2019-04-27T04:30:19.795Z,94.18
2019-04-27T04:31:17.278Z,93.67
2019-04-27T04:32:19.196Z,94.08
2019-04-27T04:33:17.265Z,93.98
2019-04-27T04:34:19.564Z,94.18
2019-04-27T04:35:17.229Z,93.57
2019-04-27T04:36:17.221Z,94.18
2019-04-27T04:37:19.525Z,94.18
2019-04-27T04:38:20.333Z,94.39
2019-04-27T04:39:19.583Z,93.57
2019-04-27T04:40:19.639Z,93.98
2019-04-27T04:41:19.989Z,94.08
2019-04-27T04:42:19.560Z,93.77
2019-04-27T04:43:19.683Z,93.57
2019-04-27T04:44:20.141Z,94.29
2019-04-27T04:45:17.135Z,94.49
2019-04-27T04:46:19.090Z,94.49
2019-04-27T04:47:19.462Z,94.49
2019-04-27T04:48:17.085Z,94.59
2019-04-27T04:49:19.280Z,94.49
2019-04-27T04:50:17.062Z,94.39
2019-04-27T04:51:17.051Z,94.29
2019-04-27T04:52:19.542Z,94.39
2019-04-27T04:53:17.027Z,94.08
2019-04-27T04:54:19.600Z,93.77
2019-04-27T04:55:17.033Z,93.98
2019-04-27T04:56:18.806Z,93.77
2019-04-27T04:57:16.983Z,93.77
2019-04-27T04:58:16.991Z,93.87
2019-04-27T04:59:16.964Z,94.29
2019-04-27T05:00:16.968Z,94.18
2019-04-27T05:01:16.951Z,94.24
2019-04-27T05:02:19.078Z,94.45
2019-04-27T05:03:16.917Z,93.83
2019-04-27T05:04:16.908Z,93.93
2019-04-27T05:05:16.928Z,94.14
2019-04-27T05:06:16.888Z,94.45
2019-04-27T05:07:16.874Z,94.34
2019-04-27T05:08:16.870Z,94.14
2019-04-27T05:09:16.866Z,94.24
2019-04-27T05:10:18.729Z,93.73
2019-04-27T05:11:16.841Z,94.04
2019-04-27T05:12:16.847Z,93.93
2019-04-27T05:13:16.807Z,94.34
2019-04-27T05:14:16.797Z,94.20
2019-04-27T05:15:16.793Z,93.63
2019-04-27T05:16:16.792Z,94.34
2019-04-27T05:17:16.764Z,93.38
2019-04-27T05:18:16.755Z,93.99
2019-04-27T05:19:18.746Z,94.10
2019-04-27T05:20:24.718Z,93.99
2019-04-27T05:21:18.530Z,94.26
2019-04-27T05:22:16.707Z,92.55
2019-04-27T05:23:18.528Z,92.10
2019-04-27T05:24:16.691Z,92.55
2019-04-27T05:25:18.461Z,92.51
2019-04-27T05:26:16.665Z,92.51
2019-04-27T05:27:16.661Z,92.41
2019-04-27T05:28:18.599Z,92.51
2019-04-27T05:29:16.629Z,93.02
2019-04-27T05:30:16.643Z,92.31
2019-04-27T05:31:16.607Z,93.02
2019-04-27T05:32:16.604Z,92.68
2019-04-27T05:33:18.193Z,92.47
2019-04-27T05:34:16.573Z,94.26
2019-04-27T05:35:16.587Z,93.39
2019-04-27T05:36:16.588Z,92.88
2019-04-27T05:37:16.546Z,92.36
2019-04-27T05:38:16.544Z,91.75
2019-04-27T05:39:18.068Z,91.82
2019-04-27T05:40:18.927Z,91.03
2019-04-27T05:41:16.517Z,91.82
2019-04-27T05:42:18.964Z,91.03
2019-04-27T05:43:16.484Z,91.40
2019-04-27T05:44:18.436Z,92.02
2019-04-27T05:45:19.910Z,92.43
2019-04-27T05:46:19.013Z,91.77
2019-04-27T05:47:16.436Z,91.56
2019-04-27T05:48:16.419Z,90.95
2019-04-27T05:49:16.408Z,90.13
2019-04-27T05:50:18.385Z,90.54
2019-04-27T05:51:17.407Z,91.36
2019-04-27T05:52:16.386Z,90.13
2019-04-27T05:53:16.365Z,90.95
2019-04-27T05:54:16.361Z,91.11
2019-04-27T05:55:16.341Z,90.81
2019-04-27T05:56:16.347Z,91.11
2019-04-27T05:57:16.328Z,91.93
2019-04-27T05:58:16.322Z,89.27
2019-04-27T05:59:16.299Z,88.35
2019-04-27T06:00:16.298Z,87.22
2019-04-27T06:01:16.293Z,88.31
2019-04-27T06:02:16.261Z,89.84
2019-04-27T06:03:16.253Z,90.05
2019-04-27T06:04:16.242Z,89.09
2019-04-27T06:05:16.227Z,88.78
2019-04-27T06:06:16.252Z,87.35
2019-04-27T06:07:16.210Z,88.26
2019-04-27T06:08:16.212Z,87.65
2019-04-27T06:09:16.189Z,89.86
2019-04-27T06:10:16.172Z,88.84
2019-04-27T06:11:16.188Z,88.23
2019-04-27T06:12:16.177Z,88.84
2019-04-27T06:13:16.161Z,90.68
2019-04-27T06:14:16.135Z,88.29
2019-04-27T06:15:16.122Z,87.06
2019-04-27T06:16:16.124Z,88.59
2019-04-27T06:17:16.111Z,88.29
2019-04-27T06:18:16.085Z,84.71
2019-04-27T06:19:16.075Z,83.18
2019-04-27T06:20:16.070Z,84.61
2019-04-27T06:21:16.051Z,85.12
2019-04-27T06:22:16.067Z,84.77
2019-04-27T06:23:16.029Z,83.28
2019-04-27T06:24:16.023Z,82.93
2019-04-27T06:25:16.018Z,84.41
2019-04-27T06:26:16.002Z,83.54
2019-04-27T06:27:16.024Z,83.65
2019-04-27T06:28:15.988Z,83.24
2019-04-27T06:29:15.966Z,82.93
2019-04-27T06:30:15.957Z,81.51
2019-04-27T06:31:15.961Z,82.01
2019-04-27T06:32:15.951Z,83.44
2019-04-27T06:33:29.232Z,85.35
2019-04-27T06:34:16.915Z,84.74
2019-04-27T06:35:15.898Z,83.00
2019-04-27T06:36:15.889Z,81.57
2019-04-27T06:37:15.893Z,83.26
2019-04-27T06:38:15.880Z,84.69
2019-04-27T06:39:15.853Z,81.02
2019-04-27T06:40:15.844Z,81.53
2019-04-27T06:41:15.835Z,79.45
2019-04-27T06:42:18.655Z,81.73
2019-04-27T06:43:15.815Z,80.78
2019-04-27T06:44:15.820Z,79.08
2019-04-27T06:45:15.793Z,79.04
2019-04-27T06:46:15.783Z,80.78
2019-04-27T06:47:15.787Z,82.92
2019-04-27T06:48:15.777Z,81.49
2019-04-27T06:49:15.751Z,78.64
2019-04-27T06:50:15.753Z,80.23
2019-04-27T06:51:15.724Z,79.62
2019-04-27T06:52:15.715Z,78.30
2019-04-27T06:53:15.722Z,80.07
2019-04-27T06:54:15.695Z,77.37
2019-04-27T06:55:15.687Z,76.50
2019-04-27T06:56:15.674Z,79.21
2019-04-27T06:57:15.661Z,78.19
2019-04-27T06:58:15.680Z,77.98
2019-04-27T06:59:15.641Z,78.19
2019-04-27T07:00:15.625Z,79.62
2019-04-27T07:01:15.627Z,77.07
2019-04-27T07:02:15.603Z,76.15
2019-04-27T07:03:15.617Z,75.74
2019-04-27T07:04:15.585Z,76.76
2019-04-27T07:05:15.579Z,76.46
2019-04-27T07:06:15.572Z,75.74
2019-04-27T07:07:15.562Z,76.15
2019-04-27T07:08:15.537Z,75.85
2019-04-27T07:09:15.554Z,77.17
2019-04-27T07:10:15.529Z,77.98
2019-04-27T07:11:15.530Z,77.78
2019-04-27T07:12:15.496Z,77.55
2019-04-27T07:13:15.511Z,75.54
2019-04-27T07:14:15.497Z,75.85
2019-04-27T07:15:15.662Z,76.32
2019-04-27T07:16:15.456Z,76.05
2019-04-27T07:17:15.444Z,75.03
2019-04-27T07:18:15.448Z,75.23
2019-04-27T07:19:15.440Z,75.44
2019-04-27T07:20:15.411Z,75.64
2019-04-27T07:21:18.983Z,75.64
2019-04-27T07:22:16.386Z,77.78
2019-04-27T07:23:15.383Z,75.64
2019-04-27T07:24:15.392Z,75.44
2019-04-27T07:25:15.386Z,76.97
2019-04-27T07:26:15.341Z,77.27
2019-04-27T07:27:15.343Z,76.35
2019-04-27T07:28:15.327Z,76.12
2019-04-27T07:29:15.325Z,77.95
2019-04-27T07:30:15.299Z,76.12
2019-04-27T07:31:15.285Z,75.60
2019-04-27T07:32:15.290Z,75.20
2019-04-27T07:33:15.267Z,74.99
2019-04-27T07:34:15.272Z,74.18
2019-04-27T07:35:15.243Z,76.01
2019-04-27T07:36:15.246Z,74.38
2019-04-27T07:37:15.225Z,73.94
2019-04-27T07:38:15.222Z,75.78
2019-04-27T07:39:15.241Z,76.18
2019-04-27T07:40:15.197Z,75.37
2019-04-27T07:41:15.182Z,74.96
2019-04-27T07:42:15.166Z,76.49
2019-04-27T07:43:15.165Z,76.15
2019-04-27T07:44:15.162Z,72.78
2019-04-27T07:45:15.130Z,76.18
2019-04-27T07:46:15.125Z,75.57
2019-04-27T07:47:15.117Z,76.28
2019-04-27T07:48:15.103Z,74.15
2019-04-27T07:49:15.124Z,73.43
2019-04-27T07:50:15.102Z,73.74
2019-04-27T07:51:15.087Z,73.74
2019-04-27T07:52:15.067Z,75.40
2019-04-27T07:53:15.050Z,75.92
2019-04-27T07:54:15.033Z,74.28
2019-04-27T07:55:15.045Z,74.42
2019-04-27T07:56:15.014Z,75.44
2019-04-27T07:57:15.005Z,75.74
2019-04-27T07:58:14.992Z,74.62
2019-04-27T07:59:14.995Z,75.64
2019-04-27T08:00:14.988Z,76.19
2019-04-27T08:01:14.958Z,75.85
2019-04-27T08:02:14.998Z,75.68
2019-04-27T08:03:14.941Z,75.48
2019-04-27T08:04:15.005Z,75.57
2019-04-27T08:05:14.938Z,76.59
2019-04-27T08:06:14.911Z,77.00
2019-04-27T08:07:14.890Z,76.84
2019-04-27T08:08:14.886Z,76.32
2019-04-27T08:09:14.873Z,76.50
2019-04-27T08:10:14.911Z,76.43
2019-04-27T08:11:14.851Z,76.73
2019-04-27T08:12:14.849Z,78.27
2019-04-27T08:13:14.830Z,76.73
2019-04-27T08:14:14.822Z,77.34
2019-04-27T08:15:14.813Z,77.55
2019-04-27T08:16:14.828Z,76.90
2019-04-27T08:17:14.805Z,77.34
2019-04-27T08:18:14.775Z,77.45
2019-04-27T08:19:14.770Z,77.65
2019-04-27T08:20:14.783Z,78.16
2019-04-27T08:21:14.752Z,78.37
2019-04-27T08:22:14.732Z,79.08
2019-04-27T08:23:14.729Z,78.98
2019-04-27T08:24:14.713Z,77.65
2019-04-27T08:25:14.727Z,78.16
2019-04-27T08:26:14.719Z,78.88
2019-04-27T08:27:14.679Z,79.28
2019-04-27T08:28:14.733Z,78.98
2019-04-27T08:29:14.654Z,78.98
2019-04-27T08:30:14.650Z,79.25
2019-04-27T08:31:14.691Z,78.88
2019-04-27T08:32:14.626Z,78.67
2019-04-27T08:33:14.614Z,79.90
2019-04-27T08:34:14.620Z,80.71
2019-04-27T08:35:14.605Z,80.96
2019-04-27T08:36:14.586Z,81.16
2019-04-27T08:37:14.608Z,81.77
2019-04-27T08:38:14.566Z,82.59
2019-04-27T08:39:14.557Z,82.08
2019-04-27T08:40:14.549Z,81.98
2019-04-27T08:41:14.537Z,81.67
2019-04-27T08:42:14.542Z,82.32
2019-04-27T08:43:14.512Z,82.89
2019-04-27T08:44:14.499Z,83.00
2019-04-27T08:45:14.506Z,83.20
2019-04-27T08:46:14.516Z,83.24
2019-04-27T08:47:14.465Z,83.14
2019-04-27T08:48:14.454Z,83.24
2019-04-27T08:49:14.453Z,84.47
2019-04-27T08:50:14.433Z,84.77
2019-04-27T08:51:14.436Z,84.67
2019-04-27T08:52:14.419Z,82.93
2019-04-27T08:53:14.412Z,84.88
2019-04-27T08:54:14.389Z,84.77
2019-04-27T08:55:14.379Z,84.57
2019-04-27T08:56:14.392Z,85.08
2019-04-27T08:57:14.360Z,85.69
2019-04-27T08:58:14.343Z,85.49
2019-04-27T08:59:14.331Z,85.59
2019-04-27T09:00:14.323Z,85.38
2019-04-27T09:01:14.335Z,85.69
2019-04-27T09:02:14.307Z,86.61
2019-04-27T09:03:14.285Z,85.89
2019-04-27T09:04:14.274Z,86.91
2019-04-27T09:05:14.263Z,85.49
2019-04-27T09:06:14.261Z,85.59
2019-04-27T09:07:14.294Z,85.49
2019-04-27T09:08:14.247Z,86.30
2019-04-27T09:09:14.225Z,85.89
2019-04-27T09:10:14.209Z,86.91
2019-04-27T09:11:14.201Z,86.91
2019-04-27T09:12:14.726Z,86.96
2019-04-27T09:13:14.225Z,87.06
2019-04-27T09:14:14.185Z,87.57
2019-04-27T09:15:14.154Z,87.88
2019-04-27T09:16:14.151Z,88.39
2019-04-27T09:17:14.161Z,89.20
2019-04-27T09:18:14.122Z,88.70
2019-04-27T09:19:14.109Z,89.00
2019-04-27T09:20:14.101Z,89.72
2019-04-27T09:21:14.107Z,89.20
2019-04-27T09:22:16.531Z,89.92
2019-04-27T09:23:14.069Z,90.02
2019-04-27T09:24:14.074Z,89.61
2019-04-27T09:25:14.077Z,90.64
2019-04-27T09:26:14.046Z,90.08
2019-04-27T09:27:14.332Z,90.02
2019-04-27T09:28:14.021Z,89.72
2019-04-27T09:29:14.011Z,88.70
2019-04-27T09:30:13.990Z,89.67
2019-04-27T09:31:13.985Z,88.65
2019-04-27T09:32:14.025Z,88.18
2019-04-27T09:33:13.960Z,89.00
2019-04-27T09:34:14.773Z,89.72
2019-04-27T09:35:13.941Z,89.88
2019-04-27T09:36:13.927Z,89.58
2019-04-27T09:37:13.973Z,89.58
2019-04-27T09:38:13.922Z,91.11
2019-04-27T09:39:13.893Z,89.98
2019-04-27T09:40:13.882Z,89.37
2019-04-27T09:41:13.890Z,90.80
2019-04-27T09:42:13.865Z,89.78
2019-04-27T09:43:15.679Z,87.63
2019-04-27T09:44:13.841Z,88.45
2019-04-27T09:45:13.832Z,88.76
2019-04-27T09:46:15.628Z,89.06
2019-04-27T09:47:13.817Z,88.00
2019-04-27T09:48:13.813Z,87.79
2019-04-27T09:49:15.710Z,87.73
2019-04-27T09:50:13.786Z,88.92
2019-04-27T09:51:13.765Z,90.14
2019-04-27T09:52:23.571Z,88.82
2019-04-27T09:53:15.840Z,90.92
2019-04-27T09:54:13.725Z,89.18
2019-04-27T09:55:13.720Z,89.90
2019-04-27T09:56:13.791Z,88.88
2019-04-27T09:57:13.698Z,89.75
2019-04-27T09:58:13.697Z,87.30
2019-04-27T09:59:13.761Z,85.77
2019-04-27T10:00:13.661Z,85.98
2019-04-27T10:01:15.888Z,85.68
2019-04-27T10:02:13.639Z,85.98
2019-04-27T10:03:13.668Z,84.55
2019-04-27T10:04:13.614Z,85.16
2019-04-27T10:05:13.609Z,83.09
2019-04-27T10:06:13.640Z,84.66
2019-04-27T10:07:13.590Z,84.82
2019-04-27T10:08:13.612Z,85.53
2019-04-27T10:09:13.565Z,85.53
2019-04-27T10:10:13.553Z,83.80
2019-04-27T10:11:13.540Z,83.29
2019-04-27T10:12:13.536Z,85.33
2019-04-27T10:13:13.543Z,85.80
2019-04-27T10:14:13.513Z,85.60
2019-04-27T10:15:13.500Z,82.43
2019-04-27T10:16:13.487Z,82.33
2019-04-27T10:17:13.484Z,83.15
2019-04-27T10:18:13.502Z,81.01
2019-04-27T10:19:13.452Z,82.74
2019-04-27T10:20:13.442Z,83.45
2019-04-27T10:21:13.443Z,82.84
2019-04-27T10:22:13.466Z,81.93
2019-04-27T10:23:13.407Z,82.23
2019-04-27T10:24:13.415Z,82.03
2019-04-27T10:25:13.405Z,80.80
2019-04-27T10:26:13.378Z,80.91
2019-04-27T10:27:13.360Z,81.21
2019-04-27T10:28:13.351Z,80.91
2019-04-27T10:29:13.355Z,79.99
2019-04-27T10:30:13.330Z,80.29
2019-04-27T10:31:13.314Z,81.31
2019-04-27T10:32:13.304Z,81.41
2019-04-27T10:33:13.321Z,81.82
2019-04-27T10:34:13.303Z,82.64
2019-04-27T10:35:13.275Z,80.97
2019-04-27T10:36:13.282Z,79.89
2019-04-27T10:37:13.253Z,79.38
2019-04-27T10:38:13.274Z,78.56
2019-04-27T10:39:13.793Z,79.38
2019-04-27T10:40:13.217Z,77.85
2019-04-27T10:41:13.214Z,78.26
2019-04-27T10:42:13.205Z,79.68
2019-04-27T10:43:13.193Z,78.66
2019-04-27T10:44:13.187Z,80.29
2019-04-27T10:45:13.174Z,78.97
2019-04-27T10:46:13.169Z,78.97
2019-04-27T10:47:13.135Z,79.48
2019-04-27T10:48:13.138Z,80.43
2019-04-27T10:49:13.163Z,79.17
2019-04-27T10:50:13.122Z,79.82
2019-04-27T10:51:13.088Z,80.29
2019-04-27T10:52:13.084Z,81.04
2019-04-27T10:53:13.068Z,81.25
2019-04-27T10:54:13.061Z,82.68
2019-04-27T10:55:13.079Z,83.49
2019-04-27T10:56:13.034Z,83.18
2019-04-27T10:57:13.025Z,83.39
2019-04-27T10:58:13.017Z,83.29
2019-04-27T10:59:13.029Z,83.09
2019-04-27T11:00:12.987Z,82.07
2019-04-27T11:01:12.996Z,83.09
2019-04-27T11:02:12.968Z,84.82
2019-04-27T11:03:12.969Z,81.25
2019-04-27T11:04:12.964Z,82.78
2019-04-27T11:05:12.964Z,83.39
2019-04-27T11:06:12.929Z,84.41
2019-04-27T11:07:12.919Z,84.82
2019-04-27T11:08:12.903Z,84.61
2019-04-27T11:09:12.911Z,84.00
2019-04-27T11:10:13.002Z,83.90
2019-04-27T11:11:12.874Z,84.92
2019-04-27T11:12:12.855Z,84.82
2019-04-27T11:13:12.856Z,83.09
2019-04-27T11:14:12.864Z,84.61
2019-04-27T11:15:12.839Z,84.51
2019-04-27T11:16:12.814Z,84.11
2019-04-27T11:17:12.806Z,81.35
2019-04-27T11:18:12.807Z,81.96
2019-04-27T11:19:12.797Z,81.04
2019-04-27T11:20:12.768Z,82.47
2019-04-27T11:21:12.758Z,82.47
2019-04-27T11:22:12.746Z,83.39
2019-04-27T11:23:12.733Z,83.23
2019-04-27T11:24:12.744Z,83.12
2019-04-27T11:25:12.732Z,84.69
2019-04-27T11:26:12.733Z,84.34
2019-04-27T11:27:12.690Z,84.86
2019-04-27T11:28:12.676Z,84.45
2019-04-27T11:29:12.685Z,85.30
2019-04-27T11:30:12.706Z,86.02
2019-04-27T11:31:12.656Z,85.51
2019-04-27T11:32:12.631Z,85.92
2019-04-27T11:33:12.620Z,87.45
2019-04-27T11:34:12.616Z,87.45
2019-04-27T11:35:12.597Z,88.57
2019-04-27T11:36:14.854Z,86.90
2019-04-27T11:37:12.580Z,88.17
2019-04-27T11:38:12.585Z,88.06
2019-04-27T11:39:12.557Z,88.17
2019-04-27T11:40:12.565Z,87.55
2019-04-27T11:41:12.551Z,87.96
2019-04-27T11:42:12.552Z,89.69
2019-04-27T11:43:12.506Z,89.45
2019-04-27T11:44:12.511Z,86.83
2019-04-27T11:45:12.499Z,87.24
2019-04-27T11:46:12.491Z,87.10
2019-04-27T11:47:12.468Z,86.83
2019-04-27T11:48:12.455Z,85.77
2019-04-27T11:49:12.473Z,85.61
2019-04-27T11:50:12.464Z,86.02
2019-04-27T11:51:12.435Z,85.41
2019-04-27T11:52:12.420Z,85.57
2019-04-27T11:53:22.071Z,85.00
2019-04-27T11:54:13.387Z,85.00
2019-04-27T11:55:12.397Z,86.02
2019-04-27T11:56:12.382Z,85.92
2019-04-27T11:57:12.362Z,86.83
2019-04-27T11:58:12.361Z,86.94
2019-04-27T11:59:12.339Z,87.76
2019-04-27T12:00:12.319Z,88.17
2019-04-27T12:01:12.333Z,89.18
2019-04-27T12:02:12.332Z,88.47
2019-04-27T12:03:12.287Z,88.17
2019-04-27T12:04:12.298Z,88.78
2019-04-27T12:05:12.275Z,88.02
2019-04-27T12:06:12.281Z,87.76
2019-04-27T12:07:12.252Z,89.14
2019-04-27T12:08:12.235Z,88.88
2019-04-27T12:09:12.230Z,88.06
2019-04-27T12:10:12.242Z,86.94
2019-04-27T12:11:12.230Z,87.76
2019-04-27T12:12:18.211Z,86.94
2019-04-27T12:13:13.177Z,87.55
2019-04-27T12:14:12.181Z,88.02
2019-04-27T12:15:12.159Z,88.88
2019-04-27T12:16:12.186Z,88.78
2019-04-27T12:17:12.134Z,89.75
2019-04-27T12:18:12.137Z,90.71
2019-04-27T12:19:12.138Z,91.08
2019-04-27T12:20:12.128Z,91.18
2019-04-27T12:21:12.126Z,89.34
2019-04-27T12:22:12.141Z,88.02
2019-04-27T12:23:12.092Z,90.22
2019-04-27T12:24:12.077Z,90.42
2019-04-27T12:25:12.060Z,87.26
2019-04-27T12:26:12.037Z,87.47
2019-04-27T12:27:12.052Z,88.49
2019-04-27T12:28:12.020Z,86.90
2019-04-27T12:29:12.007Z,87.82
2019-04-27T12:30:12.013Z,86.49
2019-04-27T12:31:11.981Z,85.68
2019-04-27T12:32:12.000Z,85.88
2019-04-27T12:33:11.963Z,87.16
2019-04-27T12:34:11.950Z,87.10
2019-04-27T12:35:11.936Z,84.31
2019-04-27T12:36:11.938Z,84.25
2019-04-27T12:37:11.936Z,84.55
2019-04-27T12:38:11.924Z,85.37
2019-04-27T12:39:11.918Z,85.06
2019-04-27T12:40:11.876Z,85.77
2019-04-27T12:41:11.867Z,87.37
2019-04-27T12:42:11.895Z,86.76
2019-04-27T12:43:11.866Z,85.57
2019-04-27T12:44:11.849Z,85.57
2019-04-27T12:45:11.826Z,85.53
2019-04-27T12:46:11.812Z,85.13
2019-04-27T12:47:11.837Z,85.84
2019-04-27T12:48:11.812Z,85.84
2019-04-27T12:49:11.786Z,85.22
2019-04-27T12:50:11.765Z,85.63
2019-04-27T12:51:11.762Z,85.80
2019-04-27T12:52:11.769Z,86.71